sensor_id;sensor_type;location;lat;lon;timestamp;P1;durP1;ratioP1;P2;durP2;ratioP2
4232;SDS011;2130;48.472;11.934;2023-01-15T00:00:09;1.63;;;0.70;;
4232;SDS011;2130;48.472;11.934;2023-01-15T00:02:38;2.60;;;0.93;;
4232;SDS011;2130;48.472;11.934;2023-01-15T00:05:07;2.23;;;0.80;;
4232;SDS011;2130;48.472;11.934;2023-01-15T00:07:36;1.73;;;0.80;;
4232;SDS011;2130;48.472;11.934;2023-01-15T00:10:08;2.37;;;1.00;;
4232;SDS011;2130;48.472;11.934;2023-01-15T00:12:38;4.10;;;0.80;;
4232;SDS011;2130;48.472;11.934;2023-01-15T00:15:07;3.80;;;0.87;;
4232;SDS011;2130;48.472;11.934;2023-01-15T00:17:36;2.03;;;0.83;;
4232;SDS011;2130;48.472;11.934;2023-01-15T00:20:05;3.77;;;1.00;;
4232;SDS011;2130;48.472;11.934;2023-01-15T00:22:35;1.83;;;0.70;;
4232;SDS011;2130;48.472;11.934;2023-01-15T00:25:04;3.27;;;1.10;;
4232;SDS011;2130;48.472;11.934;2023-01-15T00:27:54;2.20;;;0.90;;
4232;SDS011;2130;48.472;11.934;2023-01-15T00:30:23;2.30;;;0.80;;
4232;SDS011;2130;48.472;11.934;2023-01-15T00:32:52;2.03;;;1.00;;
4232;SDS011;2130;48.472;11.934;2023-01-15T00:35:22;2.00;;;0.77;;
4232;SDS011;2130;48.472;11.934;2023-01-15T00:37:51;2.03;;;0.80;;
4232;SDS011;2130;48.472;11.934;2023-01-15T00:40:24;2.40;;;0.87;;
4232;SDS011;2130;48.472;11.934;2023-01-15T00:42:53;2.80;;;1.00;;
4232;SDS011;2130;48.472;11.934;2023-01-15T00:45:22;2.20;;;0.80;;
4232;SDS011;2130;48.472;11.934;2023-01-15T00:47:51;2.60;;;0.80;;
4232;SDS011;2130;48.472;11.934;2023-01-15T00:50:21;1.77;;;0.70;;
4232;SDS011;2130;48.472;11.934;2023-01-15T00:52:50;3.33;;;0.97;;
4232;SDS011;2130;48.472;11.934;2023-01-15T00:55:19;2.20;;;0.93;;
4232;SDS011;2130;48.472;11.934;2023-01-15T00:57:49;2.30;;;1.00;;
4232;SDS011;2130;48.472;11.934;2023-01-15T01:00:18;3.37;;;0.80;;
4232;SDS011;2130;48.472;11.934;2023-01-15T01:02:47;2.90;;;0.70;;
4232;SDS011;2130;48.472;11.934;2023-01-15T01:05:15;1.63;;;0.80;;
4232;SDS011;2130;48.472;11.934;2023-01-15T01:07:44;2.13;;;0.90;;
4232;SDS011;2130;48.472;11.934;2023-01-15T01:10:12;3.07;;;0.83;;
4232;SDS011;2130;48.472;11.934;2023-01-15T01:12:41;1.60;;;0.70;;
4232;SDS011;2130;48.472;11.934;2023-01-15T01:15:11;4.00;;;1.03;;
4232;SDS011;2130;48.472;11.934;2023-01-15T01:17:39;2.03;;;0.80;;
4232;SDS011;2130;48.472;11.934;2023-01-15T01:20:08;1.50;;;0.77;;
4232;SDS011;2130;48.472;11.934;2023-01-15T01:22:47;1.53;;;0.70;;
4232;SDS011;2130;48.472;11.934;2023-01-15T01:25:15;2.50;;;0.70;;
4232;SDS011;2130;48.472;11.934;2023-01-15T01:27:44;2.90;;;0.77;;
4232;SDS011;2130;48.472;11.934;2023-01-15T01:30:16;2.10;;;0.90;;
4232;SDS011;2130;48.472;11.934;2023-01-15T01:32:45;2.03;;;0.80;;
4232;SDS011;2130;48.472;11.934;2023-01-15T01:35:14;2.70;;;0.70;;
4232;SDS011;2130;48.472;11.934;2023-01-15T01:37:47;3.37;;;0.83;;
4232;SDS011;2130;48.472;11.934;2023-01-15T01:40:17;2.70;;;0.80;;
4232;SDS011;2130;48.472;11.934;2023-01-15T01:42:46;4.07;;;0.90;;
4232;SDS011;2130;48.472;11.934;2023-01-15T01:45:19;1.87;;;0.70;;
4232;SDS011;2130;48.472;11.934;2023-01-15T01:47:51;2.57;;;0.80;;
4232;SDS011;2130;48.472;11.934;2023-01-15T01:50:22;2.13;;;0.80;;
4232;SDS011;2130;48.472;11.934;2023-01-15T01:52:57;1.83;;;0.60;;
4232;SDS011;2130;48.472;11.934;2023-01-15T01:55:27;2.43;;;0.80;;
4232;SDS011;2130;48.472;11.934;2023-01-15T01:58:01;2.03;;;0.80;;
4232;SDS011;2130;48.472;11.934;2023-01-15T02:00:34;2.70;;;0.70;;
4232;SDS011;2130;48.472;11.934;2023-01-15T02:03:05;2.47;;;0.90;;
4232;SDS011;2130;48.472;11.934;2023-01-15T02:05:37;2.20;;;0.70;;
4232;SDS011;2130;48.472;11.934;2023-01-15T02:08:08;2.80;;;0.80;;
4232;SDS011;2130;48.472;11.934;2023-01-15T02:10:37;1.90;;;0.83;;
4232;SDS011;2130;48.472;11.934;2023-01-15T02:13:10;3.27;;;1.00;;
4232;SDS011;2130;48.472;11.934;2023-01-15T02:15:46;2.70;;;0.90;;
4232;SDS011;2130;48.472;11.934;2023-01-15T02:18:17;4.00;;;1.00;;
4232;SDS011;2130;48.472;11.934;2023-01-15T02:20:49;3.30;;;0.80;;
4232;SDS011;2130;48.472;11.934;2023-01-15T02:23:22;2.20;;;0.90;;
4232;SDS011;2130;48.472;11.934;2023-01-15T02:26:02;2.17;;;0.80;;
4232;SDS011;2130;48.472;11.934;2023-01-15T02:28:53;3.00;;;0.80;;
4232;SDS011;2130;48.472;11.934;2023-01-15T02:31:26;2.57;;;0.90;;
4232;SDS011;2130;48.472;11.934;2023-01-15T02:33:57;2.27;;;0.87;;
4232;SDS011;2130;48.472;11.934;2023-01-15T02:36:30;2.93;;;1.00;;
4232;SDS011;2130;48.472;11.934;2023-01-15T02:39:18;2.70;;;0.87;;
4232;SDS011;2130;48.472;11.934;2023-01-15T02:41:49;3.07;;;0.90;;
4232;SDS011;2130;48.472;11.934;2023-01-15T02:44:21;2.93;;;1.03;;
4232;SDS011;2130;48.472;11.934;2023-01-15T02:46:56;2.33;;;0.70;;
4232;SDS011;2130;48.472;11.934;2023-01-15T02:49:27;2.90;;;0.70;;
4232;SDS011;2130;48.472;11.934;2023-01-15T02:52:05;3.33;;;0.90;;
4232;SDS011;2130;48.472;11.934;2023-01-15T02:54:38;2.93;;;0.90;;
4232;SDS011;2130;48.472;11.934;2023-01-15T02:57:10;4.10;;;0.80;;
4232;SDS011;2130;48.472;11.934;2023-01-15T02:59:41;2.33;;;0.80;;
4232;SDS011;2130;48.472;11.934;2023-01-15T03:02:14;2.70;;;0.80;;
4232;SDS011;2130;48.472;11.934;2023-01-15T03:04:48;2.40;;;0.77;;
4232;SDS011;2130;48.472;11.934;2023-01-15T03:07:21;2.43;;;0.70;;
4232;SDS011;2130;48.472;11.934;2023-01-15T03:09:54;2.40;;;0.90;;
4232;SDS011;2130;48.472;11.934;2023-01-15T03:12:25;2.30;;;0.70;;
4232;SDS011;2130;48.472;11.934;2023-01-15T03:15:02;2.13;;;0.70;;
4232;SDS011;2130;48.472;11.934;2023-01-15T03:17:36;3.43;;;0.87;;
4232;SDS011;2130;48.472;11.934;2023-01-15T03:20:07;2.60;;;0.73;;
4232;SDS011;2130;48.472;11.934;2023-01-15T03:22:39;2.40;;;0.80;;
4232;SDS011;2130;48.472;11.934;2023-01-15T03:25:12;3.00;;;0.70;;
4232;SDS011;2130;48.472;11.934;2023-01-15T03:27:48;2.80;;;0.90;;
4232;SDS011;2130;48.472;11.934;2023-01-15T03:30:23;2.90;;;0.80;;
4232;SDS011;2130;48.472;11.934;2023-01-15T03:32:53;3.13;;;0.80;;
4232;SDS011;2130;48.472;11.934;2023-01-15T03:35:40;2.70;;;0.73;;
4232;SDS011;2130;48.472;11.934;2023-01-15T03:38:23;3.43;;;0.93;;
4232;SDS011;2130;48.472;11.934;2023-01-15T03:40:55;2.60;;;0.70;;
4232;SDS011;2130;48.472;11.934;2023-01-15T03:43:30;3.80;;;0.77;;
4232;SDS011;2130;48.472;11.934;2023-01-15T03:46:17;4.43;;;0.87;;
4232;SDS011;2130;48.472;11.934;2023-01-15T03:48:56;3.00;;;0.80;;
4232;SDS011;2130;48.472;11.934;2023-01-15T03:51:31;2.90;;;0.60;;
4232;SDS011;2130;48.472;11.934;2023-01-15T03:54:04;3.93;;;0.90;;
4232;SDS011;2130;48.472;11.934;2023-01-15T03:56:37;4.03;;;0.70;;
4232;SDS011;2130;48.472;11.934;2023-01-15T03:59:16;4.67;;;0.87;;
4232;SDS011;2130;48.472;11.934;2023-01-15T04:01:57;3.20;;;0.80;;
4232;SDS011;2130;48.472;11.934;2023-01-15T04:04:26;3.60;;;0.90;;
4232;SDS011;2130;48.472;11.934;2023-01-15T04:06:56;2.90;;;0.90;;
4232;SDS011;2130;48.472;11.934;2023-01-15T04:09:26;2.90;;;0.80;;
4232;SDS011;2130;48.472;11.934;2023-01-15T04:11:57;3.50;;;0.80;;
4232;SDS011;2130;48.472;11.934;2023-01-15T04:14:31;3.03;;;0.80;;
4232;SDS011;2130;48.472;11.934;2023-01-15T04:17:07;3.40;;;0.70;;
4232;SDS011;2130;48.472;11.934;2023-01-15T04:19:36;3.87;;;0.80;;
4232;SDS011;2130;48.472;11.934;2023-01-15T04:22:08;3.13;;;0.90;;
4232;SDS011;2130;48.472;11.934;2023-01-15T04:24:37;3.17;;;0.93;;
4232;SDS011;2130;48.472;11.934;2023-01-15T04:27:06;2.87;;;0.80;;
4232;SDS011;2130;48.472;11.934;2023-01-15T04:29:36;3.20;;;0.97;;
4232;SDS011;2130;48.472;11.934;2023-01-15T04:32:06;5.13;;;0.87;;
4232;SDS011;2130;48.472;11.934;2023-01-15T04:34:35;2.90;;;0.80;;
4232;SDS011;2130;48.472;11.934;2023-01-15T04:37:05;2.80;;;0.80;;
4232;SDS011;2130;48.472;11.934;2023-01-15T04:39:33;3.30;;;0.90;;
4232;SDS011;2130;48.472;11.934;2023-01-15T04:42:03;2.80;;;0.80;;
4232;SDS011;2130;48.472;11.934;2023-01-15T04:45:09;3.00;;;0.90;;
4232;SDS011;2130;48.472;11.934;2023-01-15T04:47:40;2.53;;;0.70;;
4232;SDS011;2130;48.472;11.934;2023-01-15T04:50:09;3.10;;;0.70;;
4232;SDS011;2130;48.472;11.934;2023-01-15T04:52:38;4.50;;;1.00;;
4232;SDS011;2130;48.472;11.934;2023-01-15T04:55:07;3.10;;;0.80;;
4232;SDS011;2130;48.472;11.934;2023-01-15T04:57:37;2.70;;;0.90;;
4232;SDS011;2130;48.472;11.934;2023-01-15T05:00:06;3.27;;;1.03;;
4232;SDS011;2130;48.472;11.934;2023-01-15T05:02:37;2.73;;;0.83;;
4232;SDS011;2130;48.472;11.934;2023-01-15T05:05:08;3.10;;;0.90;;
4232;SDS011;2130;48.472;11.934;2023-01-15T05:07:37;4.60;;;0.97;;
4232;SDS011;2130;48.472;11.934;2023-01-15T05:10:06;2.90;;;1.00;;
4232;SDS011;2130;48.472;11.934;2023-01-15T05:12:37;3.00;;;0.80;;
4232;SDS011;2130;48.472;11.934;2023-01-15T05:15:06;2.63;;;0.87;;
4232;SDS011;2130;48.472;11.934;2023-01-15T05:17:36;2.73;;;0.80;;
4232;SDS011;2130;48.472;11.934;2023-01-15T05:20:10;2.60;;;0.83;;
4232;SDS011;2130;48.472;11.934;2023-01-15T05:22:41;3.00;;;0.73;;
4232;SDS011;2130;48.472;11.934;2023-01-15T05:25:10;3.47;;;1.00;;
4232;SDS011;2130;48.472;11.934;2023-01-15T05:27:39;2.80;;;0.83;;
4232;SDS011;2130;48.472;11.934;2023-01-15T05:30:09;3.20;;;1.17;;
4232;SDS011;2130;48.472;11.934;2023-01-15T05:32:39;3.00;;;0.80;;
4232;SDS011;2130;48.472;11.934;2023-01-15T05:35:08;2.90;;;0.80;;
4232;SDS011;2130;48.472;11.934;2023-01-15T05:37:38;3.50;;;0.90;;
4232;SDS011;2130;48.472;11.934;2023-01-15T05:40:11;2.60;;;0.77;;
4232;SDS011;2130;48.472;11.934;2023-01-15T05:42:40;3.03;;;1.00;;
4232;SDS011;2130;48.472;11.934;2023-01-15T05:45:11;2.70;;;0.80;;
4232;SDS011;2130;48.472;11.934;2023-01-15T05:47:40;3.00;;;1.00;;
4232;SDS011;2130;48.472;11.934;2023-01-15T05:50:11;2.80;;;0.80;;
4232;SDS011;2130;48.472;11.934;2023-01-15T05:52:40;3.00;;;0.80;;
4232;SDS011;2130;48.472;11.934;2023-01-15T05:55:08;3.43;;;0.90;;
4232;SDS011;2130;48.472;11.934;2023-01-15T05:57:38;2.63;;;0.77;;
4232;SDS011;2130;48.472;11.934;2023-01-15T06:00:07;2.60;;;0.90;;
4232;SDS011;2130;48.472;11.934;2023-01-15T06:02:40;2.80;;;0.90;;
4232;SDS011;2130;48.472;11.934;2023-01-15T06:05:11;3.00;;;0.90;;
4232;SDS011;2130;48.472;11.934;2023-01-15T06:07:40;2.97;;;1.00;;
4232;SDS011;2130;48.472;11.934;2023-01-15T06:10:09;2.60;;;0.90;;
4232;SDS011;2130;48.472;11.934;2023-01-15T06:12:38;3.80;;;0.90;;
4232;SDS011;2130;48.472;11.934;2023-01-15T06:15:08;3.03;;;0.80;;
4232;SDS011;2130;48.472;11.934;2023-01-15T06:17:37;2.80;;;0.90;;
4232;SDS011;2130;48.472;11.934;2023-01-15T06:20:11;2.90;;;1.03;;
4232;SDS011;2130;48.472;11.934;2023-01-15T06:22:40;2.60;;;0.80;;
4232;SDS011;2130;48.472;11.934;2023-01-15T06:25:12;2.80;;;0.83;;
4232;SDS011;2130;48.472;11.934;2023-01-15T06:27:41;3.00;;;0.90;;
4232;SDS011;2130;48.472;11.934;2023-01-15T06:30:11;2.40;;;0.77;;
4232;SDS011;2130;48.472;11.934;2023-01-15T06:32:40;3.40;;;0.97;;
4232;SDS011;2130;48.472;11.934;2023-01-15T06:35:10;2.70;;;1.00;;
4232;SDS011;2130;48.472;11.934;2023-01-15T06:37:40;3.27;;;1.00;;
4232;SDS011;2130;48.472;11.934;2023-01-15T06:40:10;3.77;;;1.03;;
4232;SDS011;2130;48.472;11.934;2023-01-15T06:42:43;3.40;;;1.10;;
4232;SDS011;2130;48.472;11.934;2023-01-15T06:45:31;3.73;;;0.97;;
4232;SDS011;2130;48.472;11.934;2023-01-15T06:48:21;4.20;;;1.00;;
4232;SDS011;2130;48.472;11.934;2023-01-15T06:50:52;2.83;;;0.97;;
4232;SDS011;2130;48.472;11.934;2023-01-15T06:53:21;3.20;;;1.10;;
4232;SDS011;2130;48.472;11.934;2023-01-15T06:55:50;2.80;;;1.07;;
4232;SDS011;2130;48.472;11.934;2023-01-15T06:58:18;3.13;;;0.90;;
4232;SDS011;2130;48.472;11.934;2023-01-15T07:00:49;2.50;;;0.93;;
4232;SDS011;2130;48.472;11.934;2023-01-15T07:03:22;4.30;;;1.10;;
4232;SDS011;2130;48.472;11.934;2023-01-15T07:05:52;3.23;;;0.97;;
4232;SDS011;2130;48.472;11.934;2023-01-15T07:08:24;5.00;;;1.00;;
4232;SDS011;2130;48.472;11.934;2023-01-15T07:10:53;2.60;;;0.80;;
4232;SDS011;2130;48.472;11.934;2023-01-15T07:13:22;3.20;;;0.90;;
4232;SDS011;2130;48.472;11.934;2023-01-15T07:15:51;3.20;;;0.77;;
4232;SDS011;2130;48.472;11.934;2023-01-15T07:18:20;3.00;;;0.90;;
4232;SDS011;2130;48.472;11.934;2023-01-15T07:20:54;2.70;;;0.80;;
4232;SDS011;2130;48.472;11.934;2023-01-15T07:23:24;3.37;;;0.90;;
4232;SDS011;2130;48.472;11.934;2023-01-15T07:25:54;3.30;;;0.80;;
4232;SDS011;2130;48.472;11.934;2023-01-15T07:28:26;2.40;;;0.70;;
4232;SDS011;2130;48.472;11.934;2023-01-15T07:30:57;2.60;;;0.90;;
4232;SDS011;2130;48.472;11.934;2023-01-15T07:33:26;2.40;;;0.80;;
4232;SDS011;2130;48.472;11.934;2023-01-15T07:35:56;2.50;;;0.83;;
4232;SDS011;2130;48.472;11.934;2023-01-15T07:38:27;2.60;;;0.90;;
4232;SDS011;2130;48.472;11.934;2023-01-15T07:40:55;2.63;;;0.90;;
4232;SDS011;2130;48.472;11.934;2023-01-15T07:43:38;3.20;;;1.00;;
4232;SDS011;2130;48.472;11.934;2023-01-15T07:46:29;3.23;;;0.97;;
4232;SDS011;2130;48.472;11.934;2023-01-15T07:49:16;2.50;;;0.90;;
4232;SDS011;2130;48.472;11.934;2023-01-15T07:52:04;2.70;;;0.77;;
4232;SDS011;2130;48.472;11.934;2023-01-15T07:54:33;2.50;;;1.00;;
4232;SDS011;2130;48.472;11.934;2023-01-15T07:57:02;2.13;;;0.70;;
4232;SDS011;2130;48.472;11.934;2023-01-15T07:59:31;2.10;;;0.80;;
4232;SDS011;2130;48.472;11.934;2023-01-15T08:02:01;1.93;;;0.63;;
4232;SDS011;2130;48.472;11.934;2023-01-15T08:04:30;1.73;;;0.70;;
4232;SDS011;2130;48.472;11.934;2023-01-15T08:06:59;2.17;;;0.60;;
4232;SDS011;2130;48.472;11.934;2023-01-15T08:09:30;3.60;;;0.70;;
4232;SDS011;2130;48.472;11.934;2023-01-15T08:11:59;1.57;;;0.60;;
4232;SDS011;2130;48.472;11.934;2023-01-15T08:14:46;1.93;;;0.60;;
4232;SDS011;2130;48.472;11.934;2023-01-15T08:17:36;1.63;;;0.60;;
4232;SDS011;2130;48.472;11.934;2023-01-15T08:20:06;2.30;;;0.63;;
4232;SDS011;2130;48.472;11.934;2023-01-15T08:22:36;3.07;;;0.87;;
4232;SDS011;2130;48.472;11.934;2023-01-15T08:25:08;2.20;;;0.80;;
4232;SDS011;2130;48.472;11.934;2023-01-15T08:27:38;3.20;;;0.70;;
4232;SDS011;2130;48.472;11.934;2023-01-15T08:30:09;3.13;;;0.60;;
4232;SDS011;2130;48.472;11.934;2023-01-15T08:32:40;1.83;;;0.70;;
4232;SDS011;2130;48.472;11.934;2023-01-15T08:35:08;2.40;;;0.60;;
4232;SDS011;2130;48.472;11.934;2023-01-15T08:37:38;1.93;;;0.63;;
4232;SDS011;2130;48.472;11.934;2023-01-15T08:40:09;3.03;;;0.60;;
4232;SDS011;2130;48.472;11.934;2023-01-15T08:42:38;2.23;;;0.60;;
4232;SDS011;2130;48.472;11.934;2023-01-15T08:45:07;1.87;;;0.60;;
4232;SDS011;2130;48.472;11.934;2023-01-15T08:47:36;1.47;;;0.50;;
4232;SDS011;2130;48.472;11.934;2023-01-15T08:50:05;1.20;;;0.57;;
4232;SDS011;2130;48.472;11.934;2023-01-15T08:52:34;1.10;;;0.60;;
4232;SDS011;2130;48.472;11.934;2023-01-15T08:55:03;1.67;;;0.60;;
4232;SDS011;2130;48.472;11.934;2023-01-15T08:57:34;1.87;;;0.60;;
4232;SDS011;2130;48.472;11.934;2023-01-15T09:00:04;1.13;;;0.60;;
4232;SDS011;2130;48.472;11.934;2023-01-15T09:02:34;1.27;;;0.67;;
4232;SDS011;2130;48.472;11.934;2023-01-15T09:05:02;1.27;;;0.60;;
4232;SDS011;2130;48.472;11.934;2023-01-15T09:07:31;1.47;;;0.63;;
4232;SDS011;2130;48.472;11.934;2023-01-15T09:10:01;2.93;;;0.60;;
4232;SDS011;2130;48.472;11.934;2023-01-15T09:12:30;1.00;;;0.60;;
4232;SDS011;2130;48.472;11.934;2023-01-15T09:15:00;1.03;;;0.50;;
4232;SDS011;2130;48.472;11.934;2023-01-15T09:17:30;1.40;;;0.53;;
4232;SDS011;2130;48.472;11.934;2023-01-15T09:19:59;1.80;;;0.60;;
4232;SDS011;2130;48.472;11.934;2023-01-15T09:22:28;1.83;;;0.70;;
4232;SDS011;2130;48.472;11.934;2023-01-15T09:24:57;1.53;;;0.70;;
4232;SDS011;2130;48.472;11.934;2023-01-15T09:27:26;1.67;;;0.80;;
4232;SDS011;2130;48.472;11.934;2023-01-15T09:29:55;0.80;;;0.60;;
4232;SDS011;2130;48.472;11.934;2023-01-15T09:32:25;1.70;;;0.60;;
4232;SDS011;2130;48.472;11.934;2023-01-15T09:34:53;0.97;;;0.60;;
4232;SDS011;2130;48.472;11.934;2023-01-15T09:37:22;1.47;;;0.60;;
4232;SDS011;2130;48.472;11.934;2023-01-15T09:39:51;1.63;;;0.60;;
4232;SDS011;2130;48.472;11.934;2023-01-15T09:42:26;1.00;;;0.60;;
4232;SDS011;2130;48.472;11.934;2023-01-15T09:45:04;1.07;;;0.60;;
4232;SDS011;2130;48.472;11.934;2023-01-15T09:47:39;0.90;;;0.60;;
4232;SDS011;2130;48.472;11.934;2023-01-15T09:50:17;0.87;;;0.50;;
4232;SDS011;2130;48.472;11.934;2023-01-15T09:52:57;0.93;;;0.60;;
4232;SDS011;2130;48.472;11.934;2023-01-15T09:55:34;0.83;;;0.50;;
4232;SDS011;2130;48.472;11.934;2023-01-15T09:58:11;0.80;;;0.60;;
4232;SDS011;2130;48.472;11.934;2023-01-15T10:00:42;1.30;;;0.67;;
4232;SDS011;2130;48.472;11.934;2023-01-15T10:03:16;1.27;;;0.70;;
4232;SDS011;2130;48.472;11.934;2023-01-15T10:05:54;1.67;;;0.50;;
4232;SDS011;2130;48.472;11.934;2023-01-15T10:08:26;1.03;;;0.60;;
4232;SDS011;2130;48.472;11.934;2023-01-15T10:10:58;1.83;;;0.60;;
4232;SDS011;2130;48.472;11.934;2023-01-15T10:13:30;1.30;;;0.50;;
4232;SDS011;2130;48.472;11.934;2023-01-15T10:16:03;1.23;;;0.50;;
4232;SDS011;2130;48.472;11.934;2023-01-15T10:18:33;0.93;;;0.50;;
4232;SDS011;2130;48.472;11.934;2023-01-15T10:21:05;1.37;;;0.60;;
4232;SDS011;2130;48.472;11.934;2023-01-15T10:23:49;1.00;;;0.60;;
4232;SDS011;2130;48.472;11.934;2023-01-15T10:26:28;0.90;;;0.60;;
4232;SDS011;2130;48.472;11.934;2023-01-15T10:28:59;1.93;;;0.70;;
4232;SDS011;2130;48.472;11.934;2023-01-15T10:31:35;2.10;;;0.80;;
4232;SDS011;2130;48.472;11.934;2023-01-15T10:37:19;2.00;;;0.90;;
4232;SDS011;2130;48.472;11.934;2023-01-15T10:39:56;1.60;;;1.20;;
4232;SDS011;2130;48.472;11.934;2023-01-15T10:42:49;1.83;;;0.70;;
4232;SDS011;2130;48.472;11.934;2023-01-15T10:45:21;3.33;;;0.87;;
4232;SDS011;2130;48.472;11.934;2023-01-15T10:47:52;1.20;;;0.60;;
4232;SDS011;2130;48.472;11.934;2023-01-15T10:50:24;1.47;;;0.70;;
4232;SDS011;2130;48.472;11.934;2023-01-15T10:52:58;1.90;;;0.70;;
4232;SDS011;2130;48.472;11.934;2023-01-15T10:55:31;2.90;;;1.00;;
4232;SDS011;2130;48.472;11.934;2023-01-15T10:58:02;1.90;;;0.80;;
4232;SDS011;2130;48.472;11.934;2023-01-15T11:00:37;1.37;;;0.70;;
4232;SDS011;2130;48.472;11.934;2023-01-15T11:03:09;1.87;;;0.90;;
4232;SDS011;2130;48.472;11.934;2023-01-15T11:05:43;1.33;;;0.60;;
4232;SDS011;2130;48.472;11.934;2023-01-15T11:08:14;2.97;;;0.70;;
4232;SDS011;2130;48.472;11.934;2023-01-15T11:11:15;1.30;;;0.60;;
4232;SDS011;2130;48.472;11.934;2023-01-15T11:13:52;1.57;;;0.70;;
4232;SDS011;2130;48.472;11.934;2023-01-15T11:16:39;1.67;;;0.70;;
4232;SDS011;2130;48.472;11.934;2023-01-15T11:19:27;1.63;;;0.50;;
4232;SDS011;2130;48.472;11.934;2023-01-15T11:22:09;2.40;;;0.73;;
4232;SDS011;2130;48.472;11.934;2023-01-15T11:24:44;2.07;;;0.60;;
4232;SDS011;2130;48.472;11.934;2023-01-15T11:27:15;2.03;;;0.90;;
4232;SDS011;2130;48.472;11.934;2023-01-15T11:29:50;2.20;;;0.70;;
4232;SDS011;2130;48.472;11.934;2023-01-15T11:32:22;1.67;;;0.70;;
4232;SDS011;2130;48.472;11.934;2023-01-15T11:34:53;2.50;;;0.60;;
4232;SDS011;2130;48.472;11.934;2023-01-15T11:37:24;2.70;;;0.60;;
4232;SDS011;2130;48.472;11.934;2023-01-15T11:39:54;1.57;;;0.70;;
4232;SDS011;2130;48.472;11.934;2023-01-15T11:42:26;2.23;;;0.60;;
4232;SDS011;2130;48.472;11.934;2023-01-15T11:45:14;2.83;;;0.70;;
4232;SDS011;2130;48.472;11.934;2023-01-15T11:48:08;1.30;;;0.60;;
4232;SDS011;2130;48.472;11.934;2023-01-15T11:51:00;2.43;;;0.87;;
4232;SDS011;2130;48.472;11.934;2023-01-15T11:53:39;1.77;;;0.70;;
4232;SDS011;2130;48.472;11.934;2023-01-15T11:56:10;1.77;;;0.70;;
4232;SDS011;2130;48.472;11.934;2023-01-15T11:58:43;2.23;;;0.80;;
4232;SDS011;2130;48.472;11.934;2023-01-15T12:01:21;1.40;;;0.60;;
4232;SDS011;2130;48.472;11.934;2023-01-15T12:03:52;2.20;;;0.60;;
4232;SDS011;2130;48.472;11.934;2023-01-15T12:06:22;1.63;;;0.63;;
4232;SDS011;2130;48.472;11.934;2023-01-15T12:08:52;2.60;;;0.67;;
4232;SDS011;2130;48.472;11.934;2023-01-15T12:11:28;2.03;;;0.60;;
4232;SDS011;2130;48.472;11.934;2023-01-15T12:14:06;2.00;;;0.60;;
4232;SDS011;2130;48.472;11.934;2023-01-15T12:16:48;1.90;;;0.60;;
4232;SDS011;2130;48.472;11.934;2023-01-15T12:19:25;2.30;;;0.63;;
4232;SDS011;2130;48.472;11.934;2023-01-15T12:22:08;3.13;;;0.70;;
4232;SDS011;2130;48.472;11.934;2023-01-15T12:24:48;1.10;;;0.60;;
4232;SDS011;2130;48.472;11.934;2023-01-15T12:27:47;2.93;;;0.70;;
4232;SDS011;2130;48.472;11.934;2023-01-15T12:30:31;1.93;;;0.60;;
4232;SDS011;2130;48.472;11.934;2023-01-15T12:33:12;1.77;;;0.60;;
4232;SDS011;2130;48.472;11.934;2023-01-15T12:35:45;2.30;;;0.70;;
4232;SDS011;2130;48.472;11.934;2023-01-15T12:38:28;2.60;;;0.60;;
4232;SDS011;2130;48.472;11.934;2023-01-15T12:41:08;2.20;;;0.70;;
4232;SDS011;2130;48.472;11.934;2023-01-15T12:43:42;1.63;;;0.60;;
4232;SDS011;2130;48.472;11.934;2023-01-15T12:46:32;2.23;;;0.60;;
4232;SDS011;2130;48.472;11.934;2023-01-15T12:49:03;2.50;;;0.60;;
4232;SDS011;2130;48.472;11.934;2023-01-15T12:51:36;2.70;;;0.60;;
4232;SDS011;2130;48.472;11.934;2023-01-15T12:54:10;2.20;;;0.63;;
4232;SDS011;2130;48.472;11.934;2023-01-15T12:56:46;1.47;;;0.60;;
4232;SDS011;2130;48.472;11.934;2023-01-15T12:59:21;1.83;;;0.60;;
4232;SDS011;2130;48.472;11.934;2023-01-15T13:01:55;2.30;;;0.60;;
4232;SDS011;2130;48.472;11.934;2023-01-15T13:04:31;2.90;;;0.60;;
4232;SDS011;2130;48.472;11.934;2023-01-15T13:07:17;3.80;;;0.70;;
4232;SDS011;2130;48.472;11.934;2023-01-15T13:09:51;3.20;;;0.80;;
4232;SDS011;2130;48.472;11.934;2023-01-15T13:12:25;3.23;;;0.70;;
4232;SDS011;2130;48.472;11.934;2023-01-15T13:14:56;2.33;;;0.60;;
4232;SDS011;2130;48.472;11.934;2023-01-15T13:17:27;2.30;;;0.60;;
4232;SDS011;2130;48.472;11.934;2023-01-15T13:20:07;2.00;;;0.60;;
4232;SDS011;2130;48.472;11.934;2023-01-15T13:22:58;5.00;;;0.77;;
4232;SDS011;2130;48.472;11.934;2023-01-15T13:25:47;2.27;;;0.67;;
4232;SDS011;2130;48.472;11.934;2023-01-15T13:28:33;3.10;;;0.70;;
4232;SDS011;2130;48.472;11.934;2023-01-15T13:31:11;2.50;;;0.70;;
4232;SDS011;2130;48.472;11.934;2023-01-15T13:33:47;2.43;;;0.60;;
4232;SDS011;2130;48.472;11.934;2023-01-15T13:36:22;2.90;;;0.70;;
4232;SDS011;2130;48.472;11.934;2023-01-15T13:38:54;2.90;;;0.70;;
4232;SDS011;2130;48.472;11.934;2023-01-15T13:41:25;2.40;;;0.60;;
4232;SDS011;2130;48.472;11.934;2023-01-15T13:44:23;3.10;;;0.70;;
4232;SDS011;2130;48.472;11.934;2023-01-15T13:46:58;2.33;;;0.60;;
4232;SDS011;2130;48.472;11.934;2023-01-15T13:49:30;4.17;;;0.70;;
4232;SDS011;2130;48.472;11.934;2023-01-15T13:52:00;4.13;;;0.80;;
4232;SDS011;2130;48.472;11.934;2023-01-15T13:54:30;6.30;;;1.43;;
4232;SDS011;2130;48.472;11.934;2023-01-15T13:57:08;4.07;;;0.80;;
4232;SDS011;2130;48.472;11.934;2023-01-15T13:59:42;3.77;;;0.80;;
4232;SDS011;2130;48.472;11.934;2023-01-15T14:02:25;3.80;;;0.73;;
4232;SDS011;2130;48.472;11.934;2023-01-15T14:04:58;3.23;;;0.70;;
4232;SDS011;2130;48.472;11.934;2023-01-15T14:07:31;2.90;;;0.70;;
4232;SDS011;2130;48.472;11.934;2023-01-15T14:10:08;4.13;;;0.70;;
4232;SDS011;2130;48.472;11.934;2023-01-15T14:12:48;3.80;;;0.67;;
4232;SDS011;2130;48.472;11.934;2023-01-15T14:15:28;3.37;;;0.70;;
4232;SDS011;2130;48.472;11.934;2023-01-15T14:18:11;3.83;;;0.80;;
4232;SDS011;2130;48.472;11.934;2023-01-15T14:20:59;5.53;;;0.90;;
4232;SDS011;2130;48.472;11.934;2023-01-15T14:23:38;2.93;;;0.80;;
4232;SDS011;2130;48.472;11.934;2023-01-15T14:26:19;5.83;;;0.80;;
4232;SDS011;2130;48.472;11.934;2023-01-15T14:32:00;4.13;;;0.80;;
4232;SDS011;2130;48.472;11.934;2023-01-15T14:34:35;4.33;;;0.70;;
4232;SDS011;2130;48.472;11.934;2023-01-15T14:37:04;3.43;;;0.70;;
4232;SDS011;2130;48.472;11.934;2023-01-15T14:39:39;4.33;;;0.70;;
4232;SDS011;2130;48.472;11.934;2023-01-15T14:42:13;5.60;;;0.70;;
4232;SDS011;2130;48.472;11.934;2023-01-15T14:45:02;6.83;;;0.90;;
4232;SDS011;2130;48.472;11.934;2023-01-15T14:47:42;5.20;;;0.80;;
4232;SDS011;2130;48.472;11.934;2023-01-15T14:56:01;7.03;;;0.90;;
4232;SDS011;2130;48.472;11.934;2023-01-15T14:58:43;3.97;;;0.80;;
4232;SDS011;2130;48.472;11.934;2023-01-15T15:01:23;5.67;;;0.77;;
4232;SDS011;2130;48.472;11.934;2023-01-15T15:04:00;5.60;;;0.80;;
4232;SDS011;2130;48.472;11.934;2023-01-15T15:06:35;5.20;;;0.73;;
4232;SDS011;2130;48.472;11.934;2023-01-15T15:09:12;4.53;;;0.70;;
4232;SDS011;2130;48.472;11.934;2023-01-15T15:11:43;5.47;;;0.80;;
4232;SDS011;2130;48.472;11.934;2023-01-15T15:14:58;5.93;;;0.70;;
4232;SDS011;2130;48.472;11.934;2023-01-15T15:17:30;5.50;;;0.80;;
4232;SDS011;2130;48.472;11.934;2023-01-15T15:20:18;4.70;;;0.70;;
4232;SDS011;2130;48.472;11.934;2023-01-15T15:22:52;5.40;;;0.90;;
4232;SDS011;2130;48.472;11.934;2023-01-15T15:25:26;5.40;;;0.73;;
4232;SDS011;2130;48.472;11.934;2023-01-15T15:28:02;5.80;;;0.80;;
4232;SDS011;2130;48.472;11.934;2023-01-15T15:30:32;4.63;;;0.80;;
4232;SDS011;2130;48.472;11.934;2023-01-15T15:33:05;4.30;;;0.70;;
4232;SDS011;2130;48.472;11.934;2023-01-15T15:35:45;6.50;;;0.70;;
4232;SDS011;2130;48.472;11.934;2023-01-15T15:38:19;5.83;;;0.80;;
4232;SDS011;2130;48.472;11.934;2023-01-15T15:40:49;4.67;;;0.70;;
4232;SDS011;2130;48.472;11.934;2023-01-15T15:43:21;6.23;;;0.70;;
4232;SDS011;2130;48.472;11.934;2023-01-15T15:46:21;5.97;;;0.80;;
4232;SDS011;2130;48.472;11.934;2023-01-15T15:49:10;5.70;;;0.77;;
4232;SDS011;2130;48.472;11.934;2023-01-15T15:51:45;5.90;;;0.97;;